sensor_id;sensor_type;location;lat;lon;timestamp;temperature;humidity
52609;DHT22;38503;48.544;12.142;2023-02-21T00:01:38;4.80;46.20
52609;DHT22;38503;48.544;12.142;2023-02-21T00:04:24;4.70;46.00
52609;DHT22;38503;48.544;12.142;2023-02-21T00:07:09;4.70;47.50
52609;DHT22;38503;48.544;12.142;2023-02-21T00:09:54;4.60;47.80
52609;DHT22;38503;48.544;12.142;2023-02-21T00:12:40;4.60;50.10
52609;DHT22;38503;48.544;12.142;2023-02-21T00:15:25;4.50;49.20
52609;DHT22;38503;48.544;12.142;2023-02-21T00:18:11;4.50;50.20
52609;DHT22;38503;48.544;12.142;2023-02-21T00:20:56;4.40;52.00
52609;DHT22;38503;48.544;12.142;2023-02-21T00:23:41;4.40;52.60
52609;DHT22;38503;48.544;12.142;2023-02-21T00:26:27;4.40;53.60
52609;DHT22;38503;48.544;12.142;2023-02-21T00:29:12;4.30;52.10
52609;DHT22;38503;48.544;12.142;2023-02-21T00:31:57;4.40;53.10
52609;DHT22;38503;48.544;12.142;2023-02-21T00:34:43;4.30;52.60
52609;DHT22;38503;48.544;12.142;2023-02-21T00:37:28;4.30;52.70
52609;DHT22;38503;48.544;12.142;2023-02-21T00:40:14;4.20;52.30
52609;DHT22;38503;48.544;12.142;2023-02-21T00:43:00;4.30;53.40
52609;DHT22;38503;48.544;12.142;2023-02-21T00:45:45;4.20;53.00
52609;DHT22;38503;48.544;12.142;2023-02-21T00:48:31;4.20;54.90
52609;DHT22;38503;48.544;12.142;2023-02-21T00:51:16;4.20;54.10
52609;DHT22;38503;48.544;12.142;2023-02-21T00:54:02;4.20;56.40
52609;DHT22;38503;48.544;12.142;2023-02-21T00:56:48;4.20;55.60
52609;DHT22;38503;48.544;12.142;2023-02-21T00:59:33;4.10;55.20
52609;DHT22;38503;48.544;12.142;2023-02-21T01:02:18;4.10;55.10
52609;DHT22;38503;48.544;12.142;2023-02-21T01:05:04;4.20;56.20
52609;DHT22;38503;48.544;12.142;2023-02-21T01:07:50;4.10;56.50
52609;DHT22;38503;48.544;12.142;2023-02-21T01:10:35;4.00;57.70
52609;DHT22;38503;48.544;12.142;2023-02-21T01:13:20;4.00;58.60
52609;DHT22;38503;48.544;12.142;2023-02-21T01:16:06;4.00;59.00
52609;DHT22;38503;48.544;12.142;2023-02-21T01:18:52;4.00;59.80
52609;DHT22;38503;48.544;12.142;2023-02-21T01:21:37;4.00;61.30
52609;DHT22;38503;48.544;12.142;2023-02-21T01:24:23;3.90;61.50
52609;DHT22;38503;48.544;12.142;2023-02-21T01:27:08;4.00;62.60
52609;DHT22;38503;48.544;12.142;2023-02-21T01:29:54;4.00;63.00
52609;DHT22;38503;48.544;12.142;2023-02-21T01:32:39;4.00;64.20
52609;DHT22;38503;48.544;12.142;2023-02-21T01:35:24;4.00;63.30
52609;DHT22;38503;48.544;12.142;2023-02-21T01:38:09;3.90;64.60
52609;DHT22;38503;48.544;12.142;2023-02-21T01:40:55;4.00;66.40
52609;DHT22;38503;48.544;12.142;2023-02-21T01:44:05;4.00;66.90
52609;DHT22;38503;48.544;12.142;2023-02-21T01:46:51;4.00;65.70
52609;DHT22;38503;48.544;12.142;2023-02-21T01:49:38;4.20;65.40
52609;DHT22;38503;48.544;12.142;2023-02-21T01:52:24;4.10;63.00
52609;DHT22;38503;48.544;12.142;2023-02-21T01:55:10;4.00;63.20
52609;DHT22;38503;48.544;12.142;2023-02-21T01:57:56;4.00;66.50
52609;DHT22;38503;48.544;12.142;2023-02-21T02:00:42;4.10;66.20
52609;DHT22;38503;48.544;12.142;2023-02-21T02:03:30;4.10;66.40
52609;DHT22;38503;48.544;12.142;2023-02-21T02:06:16;4.10;67.10
52609;DHT22;38503;48.544;12.142;2023-02-21T02:09:16;4.10;66.70
52609;DHT22;38503;48.544;12.142;2023-02-21T02:18:24;4.00;68.30
52609;DHT22;38503;48.544;12.142;2023-02-21T02:28:46;3.90;70.90
52609;DHT22;38503;48.544;12.142;2023-02-21T02:40:58;3.70;76.50
52609;DHT22;38503;48.544;12.142;2023-02-21T02:43:34;3.60;78.30
52609;DHT22;38503;48.544;12.142;2023-02-21T02:46:18;3.60;81.30
52609;DHT22;38503;48.544;12.142;2023-02-21T02:48:55;3.50;81.50
52609;DHT22;38503;48.544;12.142;2023-02-21T02:51:24;3.50;81.60
52609;DHT22;38503;48.544;12.142;2023-02-21T02:53:51;3.50;84.10
52609;DHT22;38503;48.544;12.142;2023-02-21T02:56:18;3.50;81.40
52609;DHT22;38503;48.544;12.142;2023-02-21T02:58:59;3.40;85.60
52609;DHT22;38503;48.544;12.142;2023-02-21T03:04:42;3.30;91.40
52609;DHT22;38503;48.544;12.142;2023-02-21T03:15:21;3.30;93.20
52609;DHT22;38503;48.544;12.142;2023-02-21T03:17:56;3.30;92.90
52609;DHT22;38503;48.544;12.142;2023-02-21T03:20:26;3.20;93.60
52609;DHT22;38503;48.544;12.142;2023-02-21T03:22:54;3.20;94.50
52609;DHT22;38503;48.544;12.142;2023-02-21T03:25:23;3.10;92.80
52609;DHT22;38503;48.544;12.142;2023-02-21T03:27:51;3.10;95.80
52609;DHT22;38503;48.544;12.142;2023-02-21T03:30:20;3.10;96.60
52609;DHT22;38503;48.544;12.142;2023-02-21T03:32:50;3.10;97.00
52609;DHT22;38503;48.544;12.142;2023-02-21T03:35:18;3.10;95.80
52609;DHT22;38503;48.544;12.142;2023-02-21T03:37:50;3.00;97.10
52609;DHT22;38503;48.544;12.142;2023-02-21T03:42:50;2.90;99.90
52609;DHT22;38503;48.544;12.142;2023-02-21T03:45:17;2.80;99.90
52609;DHT22;38503;48.544;12.142;2023-02-21T03:47:44;2.80;99.90
52609;DHT22;38503;48.544;12.142;2023-02-21T03:50:11;2.80;99.90
52609;DHT22;38503;48.544;12.142;2023-02-21T03:52:38;2.70;99.90
52609;DHT22;38503;48.544;12.142;2023-02-21T03:55:06;2.80;99.90
52609;DHT22;38503;48.544;12.142;2023-02-21T03:57:33;2.80;99.90
52609;DHT22;38503;48.544;12.142;2023-02-21T04:00:00;2.80;99.90
52609;DHT22;38503;48.544;12.142;2023-02-21T04:02:27;2.80;99.90
52609;DHT22;38503;48.544;12.142;2023-02-21T04:04:54;3.00;99.90
52609;DHT22;38503;48.544;12.142;2023-02-21T04:07:21;3.00;99.90
52609;DHT22;38503;48.544;12.142;2023-02-21T04:09:48;3.10;99.90
52609;DHT22;38503;48.544;12.142;2023-02-21T04:12:15;3.00;98.40
52609;DHT22;38503;48.544;12.142;2023-02-21T04:14:41;3.00;96.70
52609;DHT22;38503;48.544;12.142;2023-02-21T04:17:08;2.90;95.80
52609;DHT22;38503;48.544;12.142;2023-02-21T04:19:35;3.00;97.20
52609;DHT22;38503;48.544;12.142;2023-02-21T04:22:02;3.00;96.70
52609;DHT22;38503;48.544;12.142;2023-02-21T04:24:29;2.90;97.10
52609;DHT22;38503;48.544;12.142;2023-02-21T04:26:56;2.90;98.30
52609;DHT22;38503;48.544;12.142;2023-02-21T04:29:23;2.90;97.90
52609;DHT22;38503;48.544;12.142;2023-02-21T04:31:50;2.90;98.20
52609;DHT22;38503;48.544;12.142;2023-02-21T04:34:17;2.80;97.90
52609;DHT22;38503;48.544;12.142;2023-02-21T04:36:44;2.70;98.60
52609;DHT22;38503;48.544;12.142;2023-02-21T04:39:11;2.90;98.30
52609;DHT22;38503;48.544;12.142;2023-02-21T04:41:38;2.80;97.00
52609;DHT22;38503;48.544;12.142;2023-02-21T04:44:05;2.90;97.30
52609;DHT22;38503;48.544;12.142;2023-02-21T04:46:32;2.90;97.40
52609;DHT22;38503;48.544;12.142;2023-02-21T04:48:59;2.90;98.10
52609;DHT22;38503;48.544;12.142;2023-02-21T04:51:26;3.00;95.90
52609;DHT22;38503;48.544;12.142;2023-02-21T04:53:53;3.00;94.10
52609;DHT22;38503;48.544;12.142;2023-02-21T04:56:24;3.00;94.20
52609;DHT22;38503;48.544;12.142;2023-02-21T04:58:51;3.00;93.50
52609;DHT22;38503;48.544;12.142;2023-02-21T05:01:18;2.90;92.70
52609;DHT22;38503;48.544;12.142;2023-02-21T05:03:46;2.90;93.50
52609;DHT22;38503;48.544;12.142;2023-02-21T05:06:24;2.90;93.60
52609;DHT22;38503;48.544;12.142;2023-02-21T05:08:51;2.90;94.00
52609;DHT22;38503;48.544;12.142;2023-02-21T05:11:19;2.90;95.50
52609;DHT22;38503;48.544;12.142;2023-02-21T05:13:46;2.80;94.70
52609;DHT22;38503;48.544;12.142;2023-02-21T05:16:13;2.90;95.90
52609;DHT22;38503;48.544;12.142;2023-02-21T05:18:44;2.80;96.70
52609;DHT22;38503;48.544;12.142;2023-02-21T05:21:12;2.80;96.50
52609;DHT22;38503;48.544;12.142;2023-02-21T05:23:40;2.70;97.80
52609;DHT22;38503;48.544;12.142;2023-02-21T05:26:11;2.70;99.20
52609;DHT22;38503;48.544;12.142;2023-02-21T05:28:39;2.70;98.70
52609;DHT22;38503;48.544;12.142;2023-02-21T05:31:07;2.70;99.70
52609;DHT22;38503;48.544;12.142;2023-02-21T05:33:34;2.60;99.90
52609;DHT22;38503;48.544;12.142;2023-02-21T05:36:01;2.60;99.90
52609;DHT22;38503;48.544;12.142;2023-02-21T05:38:28;2.60;99.90
52609;DHT22;38503;48.544;12.142;2023-02-21T05:40:55;2.50;99.90
52609;DHT22;38503;48.544;12.142;2023-02-21T05:43:22;2.40;99.90
52609;DHT22;38503;48.544;12.142;2023-02-21T05:45:49;2.40;99.90
52609;DHT22;38503;48.544;12.142;2023-02-21T05:48:15;2.40;99.90
52609;DHT22;38503;48.544;12.142;2023-02-21T05:50:42;2.30;99.90
52609;DHT22;38503;48.544;12.142;2023-02-21T05:53:10;2.40;99.90
52609;DHT22;38503;48.544;12.142;2023-02-21T05:55:37;2.30;99.90
52609;DHT22;38503;48.544;12.142;2023-02-21T05:58:04;2.40;99.90
52609;DHT22;38503;48.544;12.142;2023-02-21T06:00:31;2.30;99.90
52609;DHT22;38503;48.544;12.142;2023-02-21T06:02:57;2.40;99.90
52609;DHT22;38503;48.544;12.142;2023-02-21T06:05:25;2.40;99.90
52609;DHT22;38503;48.544;12.142;2023-02-21T06:07:52;2.40;99.90
52609;DHT22;38503;48.544;12.142;2023-02-21T06:10:19;2.60;99.90
52609;DHT22;38503;48.544;12.142;2023-02-21T06:12:46;2.60;99.90
52609;DHT22;38503;48.544;12.142;2023-02-21T06:15:13;2.60;99.90
52609;DHT22;38503;48.544;12.142;2023-02-21T06:17:40;2.60;99.90
52609;DHT22;38503;48.544;12.142;2023-02-21T06:20:09;2.60;99.90
52609;DHT22;38503;48.544;12.142;2023-02-21T06:22:38;2.70;99.90
52609;DHT22;38503;48.544;12.142;2023-02-21T06:25:07;2.60;99.90
52609;DHT22;38503;48.544;12.142;2023-02-21T06:27:35;2.60;99.00
52609;DHT22;38503;48.544;12.142;2023-02-21T06:30:03;2.80;99.90
52609;DHT22;38503;48.544;12.142;2023-02-21T06:32:30;3.30;99.90
52609;DHT22;38503;48.544;12.142;2023-02-21T06:34:57;4.00;90.80
52609;DHT22;38503;48.544;12.142;2023-02-21T06:37:24;5.10;48.40
52609;DHT22;38503;48.544;12.142;2023-02-21T06:39:50;5.90;1.00
52609;DHT22;38503;48.544;12.142;2023-02-21T06:42:18;6.60;1.00
52609;DHT22;38503;48.544;12.142;2023-02-21T06:44:46;7.40;1.00
52609;DHT22;38503;48.544;12.142;2023-02-21T06:47:13;7.80;1.00
52609;DHT22;38503;48.544;12.142;2023-02-21T06:49:40;8.00;1.00
52609;DHT22;38503;48.544;12.142;2023-02-21T06:52:07;8.40;97.90
52609;DHT22;38503;48.544;12.142;2023-02-21T06:54:34;8.80;97.30
52609;DHT22;38503;48.544;12.142;2023-02-21T06:57:01;9.30;97.10
52609;DHT22;38503;48.544;12.142;2023-02-21T06:59:28;9.80;96.20
52609;DHT22;38503;48.544;12.142;2023-02-21T07:01:55;10.10;94.70
52609;DHT22;38503;48.544;12.142;2023-02-21T07:04:23;10.30;94.40
52609;DHT22;38503;48.544;12.142;2023-02-21T07:06:51;10.40;94.00
52609;DHT22;38503;48.544;12.142;2023-02-21T07:09:18;11.20;93.20
52609;DHT22;38503;48.544;12.142;2023-02-21T07:11:45;11.10;92.80
52609;DHT22;38503;48.544;12.142;2023-02-21T07:14:13;11.00;93.30
52609;DHT22;38503;48.544;12.142;2023-02-21T07:16:40;11.70;92.60
52609;DHT22;38503;48.544;12.142;2023-02-21T07:19:06;12.20;92.10
52609;DHT22;38503;48.544;12.142;2023-02-21T07:21:33;12.60;91.50
52609;DHT22;38503;48.544;12.142;2023-02-21T07:24:00;12.60;90.90
52609;DHT22;38503;48.544;12.142;2023-02-21T07:26:27;13.00;90.70
52609;DHT22;38503;48.544;12.142;2023-02-21T07:28:54;13.50;90.60
52609;DHT22;38503;48.544;12.142;2023-02-21T07:31:20;13.50;89.50
52609;DHT22;38503;48.544;12.142;2023-02-21T07:33:48;13.70;89.30
52609;DHT22;38503;48.544;12.142;2023-02-21T07:36:15;14.50;87.80
52609;DHT22;38503;48.544;12.142;2023-02-21T07:38:42;15.00;85.20
52609;DHT22;38503;48.544;12.142;2023-02-21T07:41:09;14.70;85.20
52609;DHT22;38503;48.544;12.142;2023-02-21T07:43:36;14.60;84.80
52609;DHT22;38503;48.544;12.142;2023-02-21T07:46:12;14.30;85.60
52609;DHT22;38503;48.544;12.142;2023-02-21T07:48:39;14.30;85.60
52609;DHT22;38503;48.544;12.142;2023-02-21T07:51:07;14.20;84.50
52609;DHT22;38503;48.544;12.142;2023-02-21T07:53:34;13.70;86.50
52609;DHT22;38503;48.544;12.142;2023-02-21T07:56:02;14.00;85.80
52609;DHT22;38503;48.544;12.142;2023-02-21T07:58:29;14.60;85.20
52609;DHT22;38503;48.544;12.142;2023-02-21T08:00:57;15.10;84.20
52609;DHT22;38503;48.544;12.142;2023-02-21T08:03:24;15.90;82.90
52609;DHT22;38503;48.544;12.142;2023-02-21T08:05:51;16.80;80.80
52609;DHT22;38503;48.544;12.142;2023-02-21T08:08:18;16.90;78.40
52609;DHT22;38503;48.544;12.142;2023-02-21T08:10:44;16.90;78.50
52609;DHT22;38503;48.544;12.142;2023-02-21T08:13:11;17.10;78.10
52609;DHT22;38503;48.544;12.142;2023-02-21T08:15:38;17.50;77.10
52609;DHT22;38503;48.544;12.142;2023-02-21T08:18:05;17.80;75.90
52609;DHT22;38503;48.544;12.142;2023-02-21T08:20:31;17.60;75.50
52609;DHT22;38503;48.544;12.142;2023-02-21T08:22:59;18.00;75.30
52609;DHT22;38503;48.544;12.142;2023-02-21T08:25:25;18.70;73.50
52609;DHT22;38503;48.544;12.142;2023-02-21T08:27:52;18.70;73.30
52609;DHT22;38503;48.544;12.142;2023-02-21T08:30:21;18.60;72.70
52609;DHT22;38503;48.544;12.142;2023-02-21T08:32:48;18.90;72.50
52609;DHT22;38503;48.544;12.142;2023-02-21T08:35:18;18.80;72.00
52609;DHT22;38503;48.544;12.142;2023-02-21T08:37:49;18.80;71.50
52609;DHT22;38503;48.544;12.142;2023-02-21T08:40:19;19.50;70.60
52609;DHT22;38503;48.544;12.142;2023-02-21T08:42:50;19.00;71.50
52609;DHT22;38503;48.544;12.142;2023-02-21T08:45:19;18.90;70.90
52609;DHT22;38503;48.544;12.142;2023-02-21T08:47:47;19.40;70.00
52609;DHT22;38503;48.544;12.142;2023-02-21T08:50:14;19.30;70.50
52609;DHT22;38503;48.544;12.142;2023-02-21T08:52:41;19.60;70.30
52609;DHT22;38503;48.544;12.142;2023-02-21T08:55:08;20.10;69.70
52609;DHT22;38503;48.544;12.142;2023-02-21T08:57:35;20.20;69.30
52609;DHT22;38503;48.544;12.142;2023-02-21T09:00:03;20.40;68.80
52609;DHT22;38503;48.544;12.142;2023-02-21T09:02:32;21.10;66.90
52609;DHT22;38503;48.544;12.142;2023-02-21T09:04:58;21.80;65.90
52609;DHT22;38503;48.544;12.142;2023-02-21T09:07:25;19.70;65.30
52609;DHT22;38503;48.544;12.142;2023-02-21T09:09:54;20.70;66.80
52609;DHT22;38503;48.544;12.142;2023-02-21T09:12:20;20.40;64.80
52609;DHT22;38503;48.544;12.142;2023-02-21T09:14:47;19.90;65.10
52609;DHT22;38503;48.544;12.142;2023-02-21T09:17:14;19.60;65.30
52609;DHT22;38503;48.544;12.142;2023-02-21T09:19:41;20.20;65.50
52609;DHT22;38503;48.544;12.142;2023-02-21T09:22:08;20.20;64.50
52609;DHT22;38503;48.544;12.142;2023-02-21T09:24:36;19.70;65.30
52609;DHT22;38503;48.544;12.142;2023-02-21T09:27:05;20.20;64.60
52609;DHT22;38503;48.544;12.142;2023-02-21T09:29:34;21.10;64.50
52609;DHT22;38503;48.544;12.142;2023-02-21T09:32:12;20.80;62.50
52609;DHT22;38503;48.544;12.142;2023-02-21T09:34:42;20.30;64.00
52609;DHT22;38503;48.544;12.142;2023-02-21T09:37:08;19.70;63.60
52609;DHT22;38503;48.544;12.142;2023-02-21T09:39:38;21.00;63.50
52609;DHT22;38503;48.544;12.142;2023-02-21T09:42:05;19.90;63.60
52609;DHT22;38503;48.544;12.142;2023-02-21T09:44:33;17.70;65.00
52609;DHT22;38503;48.544;12.142;2023-02-21T09:47:04;16.70;67.00
52609;DHT22;38503;48.544;12.142;2023-02-21T09:49:41;16.90;70.00
52609;DHT22;38503;48.544;12.142;2023-02-21T09:52:21;17.10;70.30
52609;DHT22;38503;48.544;12.142;2023-02-21T09:54:55;16.60;69.40
52609;DHT22;38503;48.544;12.142;2023-02-21T09:57:23;15.90;71.30
52609;DHT22;38503;48.544;12.142;2023-02-21T09:59:50;15.60;72.60
52609;DHT22;38503;48.544;12.142;2023-02-21T10:05:28;14.80;38.10
52609;DHT22;38503;48.544;12.142;2023-02-21T10:15:01;15.70;75.50
52609;DHT22;38503;48.544;12.142;2023-02-21T10:17:10;15.50;76.20
52609;DHT22;38503;48.544;12.142;2023-02-21T10:19:42;15.60;76.70
52609;DHT22;38503;48.544;12.142;2023-02-21T10:22:21;16.10;99.90
52609;DHT22;38503;48.544;12.142;2023-02-21T10:24:50;18.10;76.20
52609;DHT22;38503;48.544;12.142;2023-02-21T10:27:26;18.90;74.10
52609;DHT22;38503;48.544;12.142;2023-02-21T10:30:06;20.30;72.70
52609;DHT22;38503;48.544;12.142;2023-02-21T10:32:36;19.70;75.50
52609;DHT22;38503;48.544;12.142;2023-02-21T10:35:04;20.30;75.60
52609;DHT22;38503;48.544;12.142;2023-02-21T10:37:38;20.80;74.60
52609;DHT22;38503;48.544;12.142;2023-02-21T10:40:30;21.00;74.10
52609;DHT22;38503;48.544;12.142;2023-02-21T10:48:13;20.30;73.30
52609;DHT22;38503;48.544;12.142;2023-02-21T10:51:03;21.00;72.10
52609;DHT22;38503;48.544;12.142;2023-02-21T10:53:36;21.40;71.10
52609;DHT22;38503;48.544;12.142;2023-02-21T11:03:59;22.00;68.60
52609;DHT22;38503;48.544;12.142;2023-02-21T11:06:38;22.40;67.20
52609;DHT22;38503;48.544;12.142;2023-02-21T11:09:29;22.40;66.40
52609;DHT22;38503;48.544;12.142;2023-02-21T11:14:33;23.70;64.10
52609;DHT22;38503;48.544;12.142;2023-02-21T11:19:54;24.00;63.00
52609;DHT22;38503;48.544;12.142;2023-02-21T11:25:07;23.90;61.60
52609;DHT22;38503;48.544;12.142;2023-02-21T11:27:41;24.10;61.10
52609;DHT22;38503;48.544;12.142;2023-02-21T11:30:18;24.60;60.10
52609;DHT22;38503;48.544;12.142;2023-02-21T11:32:54;24.70;59.00
52609;DHT22;38503;48.544;12.142;2023-02-21T11:35:29;25.20;58.50
52609;DHT22;38503;48.544;12.142;2023-02-21T11:38:05;24.30;58.90
52609;DHT22;38503;48.544;12.142;2023-02-21T11:40:49;22.70;59.60
52609;DHT22;38503;48.544;12.142;2023-02-21T11:43:20;22.40;61.60
52609;DHT22;38503;48.544;12.142;2023-02-21T11:48:34;21.40;62.70
52609;DHT22;38503;48.544;12.142;2023-02-21T11:51:07;22.10;62.90
52609;DHT22;38503;48.544;12.142;2023-02-21T11:53:42;21.80;62.60
52609;DHT22;38503;48.544;12.142;2023-02-21T11:56:50;22.00;62.80
52609;DHT22;38503;48.544;12.142;2023-02-21T11:59:42;20.80;63.90
52609;DHT22;38503;48.544;12.142;2023-02-21T12:27:02;22.50;62.40
52609;DHT22;38503;48.544;12.142;2023-02-21T12:37:34;22.70;61.60
52609;DHT22;38503;48.544;12.142;2023-02-21T12:42:59;21.20;63.50
52609;DHT22;38503;48.544;12.142;2023-02-21T12:50:57;22.30;63.20
52609;DHT22;38503;48.544;12.142;2023-02-21T12:56:14;21.00;62.80
52609;DHT22;38503;48.544;12.142;2023-02-21T12:58:48;20.70;63.00
52609;DHT22;38503;48.544;12.142;2023-02-21T13:02:03;20.10;64.50
52609;DHT22;38503;48.544;12.142;2023-02-21T13:04:47;18.90;66.50
52609;DHT22;38503;48.544;12.142;2023-02-21T13:07:35;18.20;99.90
52609;DHT22;38503;48.544;12.142;2023-02-21T13:10:55;17.70;1.00
52609;DHT22;38503;48.544;12.142;2023-02-21T13:12:58;16.90;1.00
52609;DHT22;38503;48.544;12.142;2023-02-21T13:15:29;16.70;99.90
52609;DHT22;38503;48.544;12.142;2023-02-21T13:18:03;16.70;99.90
52609;DHT22;38503;48.544;12.142;2023-02-21T13:20:44;16.60;99.90
52609;DHT22;38503;48.544;12.142;2023-02-21T13:23:40;16.60;99.90
52609;DHT22;38503;48.544;12.142;2023-02-21T13:29:00;16.20;1.00
52609;DHT22;38503;48.544;12.142;2023-02-21T13:31:33;16.20;1.00
52609;DHT22;38503;48.544;12.142;2023-02-21T13:34:07;15.60;99.90
52609;DHT22;38503;48.544;12.142;2023-02-21T13:41:55;15.90;99.90
52609;DHT22;38503;48.544;12.142;2023-02-21T13:47:27;15.70;1.00
52609;DHT22;38503;48.544;12.142;2023-02-21T13:55:35;15.20;99.90
52609;DHT22;38503;48.544;12.142;2023-02-21T14:11:12;14.90;99.90
52609;DHT22;38503;48.544;12.142;2023-02-21T14:16:24;15.10;1.00
52609;DHT22;38503;48.544;12.142;2023-02-21T14:18:58;15.10;1.00
52609;DHT22;38503;48.544;12.142;2023-02-21T14:21:48;15.30;1.00
52609;DHT22;38503;48.544;12.142;2023-02-21T14:24:29;15.40;99.90
52609;DHT22;38503;48.544;12.142;2023-02-21T14:32:50;15.00;99.90
52609;DHT22;38503;48.544;12.142;2023-02-21T14:49:01;14.60;1.00
52609;DHT22;38503;48.544;12.142;2023-02-21T15:05:48;14.70;99.90
52609;DHT22;38503;48.544;12.142;2023-02-21T15:08:23;14.60;1.00
52609;DHT22;38503;48.544;12.142;2023-02-21T15:10:54;14.60;1.00
52609;DHT22;38503;48.544;12.142;2023-02-21T15:13:32;14.60;99.90
52609;DHT22;38503;48.544;12.142;2023-02-21T15:16:03;14.50;1.00
52609;DHT22;38503;48.544;12.142;2023-02-21T15:18:31;14.40;99.90
52609;DHT22;38503;48.544;12.142;2023-02-21T15:23:28;14.40;99.90
52609;DHT22;38503;48.544;12.142;2023-02-21T15:25:57;14.40;99.90
52609;DHT22;38503;48.544;12.142;2023-02-21T15:28:32;14.40;99.90
52609;DHT22;38503;48.544;12.142;2023-02-21T15:31:08;14.50;99.90
52609;DHT22;38503;48.544;12.142;2023-02-21T15:33:38;14.40;1.00
52609;DHT22;38503;48.544;12.142;2023-02-21T15:36:06;14.30;1.00
52609;DHT22;38503;48.544;12.142;2023-02-21T15:41:39;14.30;1.00
52609;DHT22;38503;48.544;12.142;2023-02-21T15:44:31;14.50;32.80
52609;DHT22;38503;48.544;12.142;2023-02-21T15:47:00;14.60;17.10
52609;DHT22;38503;48.544;12.142;2023-02-21T15:49:31;14.60;1.00
52609;DHT22;38503;48.544;12.142;2023-02-21T15:52:01;14.50;81.10
52609;DHT22;38503;48.544;12.142;2023-02-21T15:54:31;14.50;99.90
52609;DHT22;38503;48.544;12.142;2023-02-21T15:57:19;14.30;1.00
52609;DHT22;38503;48.544;12.142;2023-02-21T15:59:49;14.30;99.90
52609;DHT22;38503;48.544;12.142;2023-02-21T16:02:20;14.20;1.00
52609;DHT22;38503;48.544;12.142;2023-02-21T16:04:50;14.10;6.80
52609;DHT22;38503;48.544;12.142;2023-02-21T16:07:32;14.00;99.90
52609;DHT22;38503;48.544;12.142;2023-02-21T16:10:06;13.90;1.00
52609;DHT22;38503;48.544;12.142;2023-02-21T16:12:39;13.90;1.00
52609;DHT22;38503;48.544;12.142;2023-02-21T16:15:22;13.80;1.00
52609;DHT22;38503;48.544;12.142;2023-02-21T16:17:56;13.80;1.00
52609;DHT22;38503;48.544;12.142;2023-02-21T16:20:30;13.70;1.00
52609;DHT22;38503;48.544;12.142;2023-02-21T16:23:34;13.60;1.00
52609;DHT22;38503;48.544;12.142;2023-02-21T16:28:42;13.40;1.00
52609;DHT22;38503;48.544;12.142;2023-02-21T16:31:16;13.30;31.90
52609;DHT22;38503;48.544;12.142;2023-02-21T16:33:43;13.10;99.90
52609;DHT22;38503;48.544;12.142;2023-02-21T16:36:22;13.00;99.90
52609;DHT22;38503;48.544;12.142;2023-02-21T16:38:49;12.90;99.90
52609;DHT22;38503;48.544;12.142;2023-02-21T16:41:16;12.80;99.90
52609;DHT22;38503;48.544;12.142;2023-02-21T16:43:43;12.70;99.90
52609;DHT22;38503;48.544;12.142;2023-02-21T16:46:12;12.60;99.90
52609;DHT22;38503;48.544;12.142;2023-02-21T16:48:39;12.60;99.90
52609;DHT22;38503;48.544;12.142;2023-02-21T16:51:11;12.50;1.00
52609;DHT22;38503;48.544;12.142;2023-02-21T16:53:43;12.40;1.00
52609;DHT22;38503;48.544;12.142;2023-02-21T16:56:12;12.30;1.00
52609;DHT22;38503;48.544;12.142;2023-02-21T16:58:47;12.20;1.00
52609;DHT22;38503;48.544;12.142;2023-02-21T17:01:29;12.10;1.00
52609;DHT22;38503;48.544;12.142;2023-02-21T17:03:58;11.90;1.00
52609;DHT22;38503;48.544;12.142;2023-02-21T17:06:27;11.70;1.00
52609;DHT22;38503;48.544;12.142;2023-02-21T17:08:54;11.70;1.00
52609;DHT22;38503;48.544;12.142;2023-02-21T17:11:21;11.60;1.00
52609;DHT22;38503;48.544;12.142;2023-02-21T17:13:48;11.60;1.00
52609;DHT22;38503;48.544;12.142;2023-02-21T17:16:15;11.60;1.00
52609;DHT22;38503;48.544;12.142;2023-02-21T17:18:45;11.50;1.00
52609;DHT22;38503;48.544;12.142;2023-02-21T17:21:12;11.30;1.00
52609;DHT22;38503;48.544;12.142;2023-02-21T17:23:40;11.30;1.00
52609;DHT22;38503;48.544;12.142;2023-02-21T17:26:07;11.10;1.00
52609;DHT22;38503;48.544;12.142;2023-02-21T17:28:33;11.10;1.00
52609;DHT22;38503;48.544;12.142;2023-02-21T17:31:03;11.00;1.00
52609;DHT22;38503;48.544;12.142;2023-02-21T17:33:30;10.90;1.00
52609;DHT22;38503;48.544;12.142;2023-02-21T17:35:56;10.90;1.00
52609;DHT22;38503;48.544;12.142;2023-02-21T17:38:23;10.80;1.00
52609;DHT22;38503;48.544;12.142;2023-02-21T17:40:50;10.80;1.00
52609;DHT22;38503;48.544;12.142;2023-02-21T17:43:19;10.60;1.00
52609;DHT22;38503;48.544;12.142;2023-02-21T17:45:45;10.60;1.00
52609;DHT22;38503;48.544;12.142;2023-02-21T17:48:12;10.60;1.00
52609;DHT22;38503;48.544;12.142;2023-02-21T17:50:39;10.60;1.00
52609;DHT22;38503;48.544;12.142;2023-02-21T17:53:06;10.50;1.00
52609;DHT22;38503;48.544;12.142;2023-02-21T17:55:34;10.40;1.00
52609;DHT22;38503;48.544;12.142;2023-02-21T17:58:01;10.30;1.00
52609;DHT22;38503;48.544;12.142;2023-02-21T18:00:27;10.30;1.00
52609;DHT22;38503;48.544;12.142;2023-02-21T18:02:56;10.20;1.00
52609;DHT22;38503;48.544;12.142;2023-02-21T18:05:23;10.10;1.00
52609;DHT22;38503;48.544;12.142;2023-02-21T18:07:51;9.90;1.00
52609;DHT22;38503;48.544;12.142;2023-02-21T18:10:20;10.00;1.00
52609;DHT22;38503;48.544;12.142;2023-02-21T18:12:47;9.90;1.00
52609;DHT22;38503;48.544;12.142;2023-02-21T18:15:19;9.80;1.00
52609;DHT22;38503;48.544;12.142;2023-02-21T18:17:46;9.70;1.00
52609;DHT22;38503;48.544;12.142;2023-02-21T18:20:13;9.70;1.00
52609;DHT22;38503;48.544;12.142;2023-02-21T18:22:42;9.60;1.00
52609;DHT22;38503;48.544;12.142;2023-02-21T18:25:09;9.50;1.00
52609;DHT22;38503;48.544;12.142;2023-02-21T18:27:36;9.50;1.00
52609;DHT22;38503;48.544;12.142;2023-02-21T18:30:03;9.40;1.00
52609;DHT22;38503;48.544;12.142;2023-02-21T18:32:30;9.30;1.00
52609;DHT22;38503;48.544;12.142;2023-02-21T18:34:57;9.30;1.00
52609;DHT22;38503;48.544;12.142;2023-02-21T18:37:26;9.30;1.00
52609;DHT22;38503;48.544;12.142;2023-02-21T18:39:54;9.20;1.00
52609;DHT22;38503;48.544;12.142;2023-02-21T18:42:21;9.10;1.00
52609;DHT22;38503;48.544;12.142;2023-02-21T18:44:50;9.10;3.90
52609;DHT22;38503;48.544;12.142;2023-02-21T18:47:17;9.00;2.90
52609;DHT22;38503;48.544;12.142;2023-02-21T18:49:46;9.00;5.00
52609;DHT22;38503;48.544;12.142;2023-02-21T18:52:14;9.00;6.30
52609;DHT22;38503;48.544;12.142;2023-02-21T18:54:45;8.90;7.70
52609;DHT22;38503;48.544;12.142;2023-02-21T18:57:15;8.80;9.70
52609;DHT22;38503;48.544;12.142;2023-02-21T18:59:42;8.70;11.60
52609;DHT22;38503;48.544;12.142;2023-02-21T19:02:14;8.80;15.20
52609;DHT22;38503;48.544;12.142;2023-02-21T19:04:42;8.70;16.40
52609;DHT22;38503;48.544;12.142;2023-02-21T19:07:10;8.60;19.20